sensor_id;sensor_type;location;lat;lon;timestamp;P1;durP1;ratioP1;P2;durP2;ratioP2
27223;SDS011;14965;50.660;13.226;2022-08-03T00:01:32;5.03;;;4.53;;
27223;SDS011;14965;50.660;13.226;2022-08-03T00:03:58;7.90;;;4.50;;
27223;SDS011;14965;50.660;13.226;2022-08-03T00:06:24;6.00;;;4.68;;
27223;SDS011;14965;50.660;13.226;2022-08-03T00:08:50;8.75;;;5.13;;
27223;SDS011;14965;50.660;13.226;2022-08-03T00:11:16;6.95;;;5.03;;
27223;SDS011;14965;50.660;13.226;2022-08-03T00:13:42;8.57;;;4.68;;
27223;SDS011;14965;50.660;13.226;2022-08-03T00:16:09;5.57;;;4.30;;
27223;SDS011;14965;50.660;13.226;2022-08-03T00:18:35;5.82;;;5.22;;
27223;SDS011;14965;50.660;13.226;2022-08-03T00:21:02;6.88;;;4.75;;
27223;SDS011;14965;50.660;13.226;2022-08-03T00:23:29;5.82;;;4.60;;
27223;SDS011;14965;50.660;13.226;2022-08-03T00:25:54;6.20;;;4.60;;
27223;SDS011;14965;50.660;13.226;2022-08-03T00:28:21;5.57;;;4.28;;
27223;SDS011;14965;50.660;13.226;2022-08-03T00:30:47;7.28;;;4.70;;
27223;SDS011;14965;50.660;13.226;2022-08-03T00:33:14;6.97;;;4.53;;
27223;SDS011;14965;50.660;13.226;2022-08-03T00:35:40;8.30;;;4.57;;
27223;SDS011;14965;50.660;13.226;2022-08-03T00:38:06;6.18;;;4.55;;
27223;SDS011;14965;50.660;13.226;2022-08-03T00:40:32;4.82;;;4.22;;
27223;SDS011;14965;50.660;13.226;2022-08-03T00:42:59;7.03;;;4.43;;
27223;SDS011;14965;50.660;13.226;2022-08-03T00:47:56;5.28;;;4.13;;
27223;SDS011;14965;50.660;13.226;2022-08-03T00:50:25;6.05;;;4.18;;
27223;SDS011;14965;50.660;13.226;2022-08-03T00:52:56;8.98;;;4.70;;
27223;SDS011;14965;50.660;13.226;2022-08-03T00:55:23;6.35;;;4.60;;
27223;SDS011;14965;50.660;13.226;2022-08-03T00:57:50;6.78;;;5.00;;
27223;SDS011;14965;50.660;13.226;2022-08-03T01:00:18;5.10;;;4.38;;
27223;SDS011;14965;50.660;13.226;2022-08-03T01:02:47;6.15;;;4.60;;
27223;SDS011;14965;50.660;13.226;2022-08-03T01:05:13;9.35;;;4.50;;
27223;SDS011;14965;50.660;13.226;2022-08-03T01:07:43;7.07;;;4.57;;
27223;SDS011;14965;50.660;13.226;2022-08-03T01:10:33;7.40;;;4.50;;
27223;SDS011;14965;50.660;13.226;2022-08-03T01:13:14;7.22;;;4.45;;
27223;SDS011;14965;50.660;13.226;2022-08-03T01:15:49;4.93;;;4.35;;
27223;SDS011;14965;50.660;13.226;2022-08-03T01:18:35;8.30;;;4.75;;
27223;SDS011;14965;50.660;13.226;2022-08-03T01:21:09;4.85;;;4.43;;
27223;SDS011;14965;50.660;13.226;2022-08-03T01:23:47;5.93;;;4.78;;
27223;SDS011;14965;50.660;13.226;2022-08-03T01:29:50;5.45;;;4.90;;
27223;SDS011;14965;50.660;13.226;2022-08-03T01:32:24;7.28;;;4.93;;
27223;SDS011;14965;50.660;13.226;2022-08-03T01:35:01;5.22;;;4.72;;
27223;SDS011;14965;50.660;13.226;2022-08-03T01:37:34;6.90;;;4.72;;
27223;SDS011;14965;50.660;13.226;2022-08-03T01:40:09;7.50;;;4.57;;
27223;SDS011;14965;50.660;13.226;2022-08-03T01:45:08;8.30;;;4.70;;
27223;SDS011;14965;50.660;13.226;2022-08-03T01:47:37;6.35;;;4.63;;
27223;SDS011;14965;50.660;13.226;2022-08-03T01:50:04;6.68;;;4.80;;
27223;SDS011;14965;50.660;13.226;2022-08-03T01:52:35;7.10;;;4.70;;
27223;SDS011;14965;50.660;13.226;2022-08-03T01:55:04;9.25;;;4.97;;
27223;SDS011;14965;50.660;13.226;2022-08-03T01:57:32;4.80;;;4.30;;
27223;SDS011;14965;50.660;13.226;2022-08-03T02:00:00;5.68;;;4.40;;
27223;SDS011;14965;50.660;13.226;2022-08-03T02:02:30;8.45;;;4.63;;
27223;SDS011;14965;50.660;13.226;2022-08-03T02:07:25;6.50;;;4.50;;
27223;SDS011;14965;50.660;13.226;2022-08-03T02:09:53;7.30;;;4.70;;
27223;SDS011;14965;50.660;13.226;2022-08-03T02:12:22;6.55;;;4.68;;
27223;SDS011;14965;50.660;13.226;2022-08-03T02:14:50;7.38;;;4.60;;
27223;SDS011;14965;50.660;13.226;2022-08-03T02:17:18;7.03;;;4.65;;
27223;SDS011;14965;50.660;13.226;2022-08-03T02:19:47;8.75;;;4.82;;
27223;SDS011;14965;50.660;13.226;2022-08-03T02:22:16;8.30;;;4.50;;
27223;SDS011;14965;50.660;13.226;2022-08-03T02:24:42;4.97;;;4.47;;
27223;SDS011;14965;50.660;13.226;2022-08-03T02:27:11;7.38;;;4.78;;
27223;SDS011;14965;50.660;13.226;2022-08-03T02:29:44;6.00;;;4.80;;
27223;SDS011;14965;50.660;13.226;2022-08-03T02:32:16;8.25;;;4.70;;
27223;SDS011;14965;50.660;13.226;2022-08-03T02:34:46;8.40;;;4.85;;
27223;SDS011;14965;50.660;13.226;2022-08-03T02:37:18;6.15;;;4.65;;
27223;SDS011;14965;50.660;13.226;2022-08-03T02:39:48;7.20;;;4.60;;
27223;SDS011;14965;50.660;13.226;2022-08-03T02:42:16;7.72;;;5.05;;
27223;SDS011;14965;50.660;13.226;2022-08-03T02:44:48;5.95;;;4.40;;
27223;SDS011;14965;50.660;13.226;2022-08-03T02:47:19;6.82;;;4.78;;
27223;SDS011;14965;50.660;13.226;2022-08-03T02:49:46;9.02;;;5.03;;
27223;SDS011;14965;50.660;13.226;2022-08-03T02:54:42;8.82;;;4.72;;
27223;SDS011;14965;50.660;13.226;2022-08-03T02:57:10;7.85;;;5.32;;
27223;SDS011;14965;50.660;13.226;2022-08-03T02:59:39;7.65;;;5.68;;
27223;SDS011;14965;50.660;13.226;2022-08-03T03:02:07;12.90;;;8.45;;
27223;SDS011;14965;50.660;13.226;2022-08-03T03:04:36;11.68;;;7.03;;
27223;SDS011;14965;50.660;13.226;2022-08-03T03:07:04;12.05;;;8.75;;
27223;SDS011;14965;50.660;13.226;2022-08-03T03:09:30;10.65;;;7.38;;
27223;SDS011;14965;50.660;13.226;2022-08-03T03:11:58;6.13;;;5.43;;
27223;SDS011;14965;50.660;13.226;2022-08-03T03:14:26;7.33;;;5.03;;
27223;SDS011;14965;50.660;13.226;2022-08-03T03:16:53;5.80;;;5.20;;
27223;SDS011;14965;50.660;13.226;2022-08-03T03:19:20;6.47;;;5.20;;
27223;SDS011;14965;50.660;13.226;2022-08-03T03:21:48;9.55;;;5.60;;
27223;SDS011;14965;50.660;13.226;2022-08-03T03:24:17;7.22;;;5.25;;
27223;SDS011;14965;50.660;13.226;2022-08-03T03:26:43;6.50;;;5.10;;
27223;SDS011;14965;50.660;13.226;2022-08-03T03:29:09;6.38;;;5.10;;
27223;SDS011;14965;50.660;13.226;2022-08-03T03:31:35;8.82;;;4.90;;
27223;SDS011;14965;50.660;13.226;2022-08-03T03:34:01;6.70;;;4.78;;
27223;SDS011;14965;50.660;13.226;2022-08-03T03:36:28;5.70;;;5.10;;
27223;SDS011;14965;50.660;13.226;2022-08-03T03:38:54;7.85;;;5.10;;
27223;SDS011;14965;50.660;13.226;2022-08-03T03:41:22;12.13;;;5.40;;
27223;SDS011;14965;50.660;13.226;2022-08-03T03:43:48;6.30;;;5.15;;
27223;SDS011;14965;50.660;13.226;2022-08-03T03:46:15;7.72;;;5.20;;
27223;SDS011;14965;50.660;13.226;2022-08-03T03:48:41;8.48;;;5.35;;
27223;SDS011;14965;50.660;13.226;2022-08-03T03:51:08;8.48;;;5.50;;
27223;SDS011;14965;50.660;13.226;2022-08-03T03:53:34;7.20;;;5.38;;
27223;SDS011;14965;50.660;13.226;2022-08-03T03:56:00;8.30;;;5.55;;
27223;SDS011;14965;50.660;13.226;2022-08-03T03:58:27;7.78;;;5.95;;
27223;SDS011;14965;50.660;13.226;2022-08-03T04:03:21;9.52;;;5.78;;
27223;SDS011;14965;50.660;13.226;2022-08-03T04:05:47;8.18;;;5.72;;
27223;SDS011;14965;50.660;13.226;2022-08-03T04:08:13;10.07;;;5.95;;
27223;SDS011;14965;50.660;13.226;2022-08-03T04:10:42;6.60;;;5.63;;
27223;SDS011;14965;50.660;13.226;2022-08-03T04:13:18;9.25;;;5.25;;
27223;SDS011;14965;50.660;13.226;2022-08-03T04:15:48;8.60;;;5.97;;
27223;SDS011;14965;50.660;13.226;2022-08-03T04:18:16;9.82;;;5.80;;
27223;SDS011;14965;50.660;13.226;2022-08-03T04:20:44;6.13;;;5.50;;
27223;SDS011;14965;50.660;13.226;2022-08-03T04:23:14;7.10;;;5.70;;
27223;SDS011;14965;50.660;13.226;2022-08-03T04:25:45;8.75;;;5.30;;
27223;SDS011;14965;50.660;13.226;2022-08-03T04:28:15;6.90;;;5.65;;
27223;SDS011;14965;50.660;13.226;2022-08-03T04:30:44;6.28;;;5.63;;
27223;SDS011;14965;50.660;13.226;2022-08-03T04:33:13;8.40;;;5.65;;
27223;SDS011;14965;50.660;13.226;2022-08-03T04:35:42;8.47;;;6.20;;
27223;SDS011;14965;50.660;13.226;2022-08-03T04:38:12;9.55;;;5.85;;
27223;SDS011;14965;50.660;13.226;2022-08-03T04:40:42;8.05;;;5.53;;
27223;SDS011;14965;50.660;13.226;2022-08-03T04:43:10;8.88;;;5.07;;
27223;SDS011;14965;50.660;13.226;2022-08-03T04:45:40;8.63;;;5.40;;
27223;SDS011;14965;50.660;13.226;2022-08-03T04:48:11;10.02;;;4.70;;
27223;SDS011;14965;50.660;13.226;2022-08-03T04:53:05;8.40;;;4.68;;
27223;SDS011;14965;50.660;13.226;2022-08-03T04:55:32;6.57;;;4.22;;
27223;SDS011;14965;50.660;13.226;2022-08-03T04:57:59;7.03;;;4.22;;
27223;SDS011;14965;50.660;13.226;2022-08-03T05:00:27;4.88;;;3.80;;
27223;SDS011;14965;50.660;13.226;2022-08-03T05:02:53;6.88;;;4.45;;
27223;SDS011;14965;50.660;13.226;2022-08-03T05:05:21;7.68;;;3.88;;
27223;SDS011;14965;50.660;13.226;2022-08-03T05:07:47;7.55;;;3.67;;
27223;SDS011;14965;50.660;13.226;2022-08-03T05:10:13;6.65;;;3.70;;
27223;SDS011;14965;50.660;13.226;2022-08-03T05:12:41;6.60;;;3.67;;
27223;SDS011;14965;50.660;13.226;2022-08-03T05:15:08;4.47;;;3.75;;
27223;SDS011;14965;50.660;13.226;2022-08-03T05:17:34;3.88;;;3.28;;
27223;SDS011;14965;50.660;13.226;2022-08-03T05:20:00;6.50;;;3.42;;
27223;SDS011;14965;50.660;13.226;2022-08-03T05:22:28;5.40;;;3.75;;
27223;SDS011;14965;50.660;13.226;2022-08-03T05:24:54;7.40;;;3.72;;
27223;SDS011;14965;50.660;13.226;2022-08-03T05:27:20;7.53;;;3.90;;
27223;SDS011;14965;50.660;13.226;2022-08-03T05:29:46;5.07;;;3.70;;
27223;SDS011;14965;50.660;13.226;2022-08-03T05:34:40;6.47;;;4.13;;
27223;SDS011;14965;50.660;13.226;2022-08-03T05:37:06;7.82;;;4.43;;
27223;SDS011;14965;50.660;13.226;2022-08-03T05:39:33;10.10;;;4.22;;
27223;SDS011;14965;50.660;13.226;2022-08-03T05:41:59;5.80;;;4.32;;
27223;SDS011;14965;50.660;13.226;2022-08-03T05:44:26;6.68;;;4.60;;
27223;SDS011;14965;50.660;13.226;2022-08-03T05:46:52;4.90;;;3.60;;
27223;SDS011;14965;50.660;13.226;2022-08-03T05:49:18;7.07;;;3.33;;
27223;SDS011;14965;50.660;13.226;2022-08-03T05:51:44;5.05;;;2.83;;
27223;SDS011;14965;50.660;13.226;2022-08-03T05:54:10;8.00;;;3.20;;
27223;SDS011;14965;50.660;13.226;2022-08-03T05:56:38;4.72;;;3.22;;
27223;SDS011;14965;50.660;13.226;2022-08-03T05:59:04;3.53;;;2.88;;
27223;SDS011;14965;50.660;13.226;2022-08-03T06:01:30;4.53;;;3.08;;
27223;SDS011;14965;50.660;13.226;2022-08-03T06:03:56;4.75;;;3.20;;
27223;SDS011;14965;50.660;13.226;2022-08-03T06:06:22;4.88;;;3.70;;
27223;SDS011;14965;50.660;13.226;2022-08-03T06:08:49;6.53;;;3.55;;
27223;SDS011;14965;50.660;13.226;2022-08-03T06:11:15;5.30;;;3.63;;
27223;SDS011;14965;50.660;13.226;2022-08-03T06:13:42;5.75;;;3.40;;
27223;SDS011;14965;50.660;13.226;2022-08-03T06:16:08;4.85;;;3.42;;
27223;SDS011;14965;50.660;13.226;2022-08-03T06:18:35;6.50;;;3.50;;
27223;SDS011;14965;50.660;13.226;2022-08-03T06:21:02;4.82;;;3.30;;
27223;SDS011;14965;50.660;13.226;2022-08-03T06:23:28;4.50;;;3.28;;
27223;SDS011;14965;50.660;13.226;2022-08-03T06:25:54;5.95;;;3.25;;
27223;SDS011;14965;50.660;13.226;2022-08-03T06:28:20;6.60;;;3.25;;
27223;SDS011;14965;50.660;13.226;2022-08-03T06:30:47;6.40;;;2.97;;
27223;SDS011;14965;50.660;13.226;2022-08-03T06:33:13;3.55;;;3.17;;
27223;SDS011;14965;50.660;13.226;2022-08-03T06:35:39;4.57;;;3.00;;
27223;SDS011;14965;50.660;13.226;2022-08-03T06:38:05;5.78;;;3.28;;
27223;SDS011;14965;50.660;13.226;2022-08-03T06:40:33;4.63;;;3.33;;
27223;SDS011;14965;50.660;13.226;2022-08-03T06:43:01;4.28;;;3.00;;
27223;SDS011;14965;50.660;13.226;2022-08-03T06:45:27;7.60;;;3.20;;
27223;SDS011;14965;50.660;13.226;2022-08-03T06:48:00;5.10;;;3.03;;
27223;SDS011;14965;50.660;13.226;2022-08-03T06:50:28;4.22;;;2.80;;
27223;SDS011;14965;50.660;13.226;2022-08-03T06:52:55;6.50;;;3.17;;
27223;SDS011;14965;50.660;13.226;2022-08-03T06:55:21;4.35;;;2.88;;
27223;SDS011;14965;50.660;13.226;2022-08-03T06:57:47;3.70;;;3.00;;
27223;SDS011;14965;50.660;13.226;2022-08-03T07:00:13;3.08;;;2.70;;
27223;SDS011;14965;50.660;13.226;2022-08-03T07:02:39;4.25;;;2.92;;
27223;SDS011;14965;50.660;13.226;2022-08-03T07:05:07;4.70;;;2.90;;
27223;SDS011;14965;50.660;13.226;2022-08-03T07:09:59;4.80;;;3.30;;
27223;SDS011;14965;50.660;13.226;2022-08-03T07:12:26;5.47;;;3.20;;
27223;SDS011;14965;50.660;13.226;2022-08-03T07:14:53;7.38;;;3.30;;
27223;SDS011;14965;50.660;13.226;2022-08-03T07:17:20;4.28;;;2.83;;
27223;SDS011;14965;50.660;13.226;2022-08-03T07:19:46;7.05;;;3.20;;
27223;SDS011;14965;50.660;13.226;2022-08-03T07:22:13;8.52;;;3.05;;
27223;SDS011;14965;50.660;13.226;2022-08-03T07:24:39;6.20;;;3.33;;
27223;SDS011;14965;50.660;13.226;2022-08-03T07:27:05;4.35;;;2.75;;
27223;SDS011;14965;50.660;13.226;2022-08-03T07:29:30;9.55;;;3.20;;
27223;SDS011;14965;50.660;13.226;2022-08-03T07:31:58;4.55;;;3.17;;
27223;SDS011;14965;50.660;13.226;2022-08-03T07:34:24;4.25;;;2.90;;
27223;SDS011;14965;50.660;13.226;2022-08-03T07:36:50;4.30;;;2.65;;
27223;SDS011;14965;50.660;13.226;2022-08-03T07:39:17;3.50;;;2.40;;
27223;SDS011;14965;50.660;13.226;2022-08-03T07:41:43;2.25;;;2.13;;
27223;SDS011;14965;50.660;13.226;2022-08-03T07:44:09;5.05;;;2.35;;
27223;SDS011;14965;50.660;13.226;2022-08-03T07:46:35;2.97;;;2.60;;
27223;SDS011;14965;50.660;13.226;2022-08-03T07:49:01;6.35;;;2.15;;
27223;SDS011;14965;50.660;13.226;2022-08-03T07:51:27;6.15;;;2.20;;
27223;SDS011;14965;50.660;13.226;2022-08-03T07:53:52;2.22;;;2.03;;
27223;SDS011;14965;50.660;13.226;2022-08-03T07:56:20;3.95;;;2.17;;
27223;SDS011;14965;50.660;13.226;2022-08-03T07:58:45;3.15;;;1.83;;
27223;SDS011;14965;50.660;13.226;2022-08-03T08:01:11;3.85;;;2.20;;
27223;SDS011;14965;50.660;13.226;2022-08-03T08:03:37;2.47;;;2.00;;
27223;SDS011;14965;50.660;13.226;2022-08-03T08:06:03;3.90;;;1.80;;
27223;SDS011;14965;50.660;13.226;2022-08-03T08:08:29;5.05;;;1.80;;
27223;SDS011;14965;50.660;13.226;2022-08-03T08:10:55;1.75;;;1.65;;
27223;SDS011;14965;50.660;13.226;2022-08-03T08:13:22;2.78;;;1.60;;
27223;SDS011;14965;50.660;13.226;2022-08-03T08:15:48;1.63;;;1.52;;
27223;SDS011;14965;50.660;13.226;2022-08-03T08:18:14;2.30;;;1.70;;
27223;SDS011;14965;50.660;13.226;2022-08-03T08:20:40;3.35;;;1.80;;
27223;SDS011;14965;50.660;13.226;2022-08-03T08:23:07;2.75;;;1.58;;
27223;SDS011;14965;50.660;13.226;2022-08-03T08:25:33;1.85;;;1.60;;
27223;SDS011;14965;50.660;13.226;2022-08-03T08:27:59;3.95;;;1.33;;
27223;SDS011;14965;50.660;13.226;2022-08-03T08:30:26;2.70;;;1.65;;
27223;SDS011;14965;50.660;13.226;2022-08-03T08:32:53;2.88;;;1.52;;
27223;SDS011;14965;50.660;13.226;2022-08-03T08:35:18;2.75;;;1.67;;
27223;SDS011;14965;50.660;13.226;2022-08-03T08:37:44;5.93;;;1.77;;
27223;SDS011;14965;50.660;13.226;2022-08-03T08:40:11;6.13;;;1.88;;
27223;SDS011;14965;50.660;13.226;2022-08-03T08:42:37;3.83;;;1.45;;
27223;SDS011;14965;50.660;13.226;2022-08-03T08:45:04;6.07;;;1.58;;
27223;SDS011;14965;50.660;13.226;2022-08-03T08:47:35;3.97;;;1.70;;
27223;SDS011;14965;50.660;13.226;2022-08-03T08:50:03;3.28;;;1.83;;
27223;SDS011;14965;50.660;13.226;2022-08-03T08:52:31;2.78;;;1.70;;
27223;SDS011;14965;50.660;13.226;2022-08-03T08:54:59;1.95;;;1.73;;
27223;SDS011;14965;50.660;13.226;2022-08-03T08:57:29;2.10;;;1.60;;
27223;SDS011;14965;50.660;13.226;2022-08-03T08:59:59;2.63;;;1.80;;
27223;SDS011;14965;50.660;13.226;2022-08-03T09:02:28;3.05;;;1.75;;
27223;SDS011;14965;50.660;13.226;2022-08-03T09:04:56;3.60;;;1.80;;
27223;SDS011;14965;50.660;13.226;2022-08-03T09:07:23;2.15;;;1.80;;
27223;SDS011;14965;50.660;13.226;2022-08-03T09:09:49;4.43;;;1.70;;
27223;SDS011;14965;50.660;13.226;2022-08-03T09:12:14;6.88;;;2.10;;
27223;SDS011;14965;50.660;13.226;2022-08-03T09:14:40;3.88;;;2.13;;
27223;SDS011;14965;50.660;13.226;2022-08-03T09:17:06;2.88;;;1.92;;
27223;SDS011;14965;50.660;13.226;2022-08-03T09:19:32;4.15;;;2.00;;
27223;SDS011;14965;50.660;13.226;2022-08-03T09:22:07;5.18;;;1.90;;
27223;SDS011;14965;50.660;13.226;2022-08-03T09:24:38;2.53;;;2.00;;
27223;SDS011;14965;50.660;13.226;2022-08-03T09:27:19;2.20;;;2.00;;
27223;SDS011;14965;50.660;13.226;2022-08-03T09:29:46;2.13;;;1.90;;
27223;SDS011;14965;50.660;13.226;2022-08-03T09:32:13;2.88;;;2.15;;
27223;SDS011;14965;50.660;13.226;2022-08-03T09:34:41;4.25;;;2.10;;
27223;SDS011;14965;50.660;13.226;2022-08-03T09:37:12;5.72;;;1.85;;
27223;SDS011;14965;50.660;13.226;2022-08-03T09:39:39;2.55;;;2.03;;
27223;SDS011;14965;50.660;13.226;2022-08-03T09:42:06;7.28;;;2.30;;
27223;SDS011;14965;50.660;13.226;2022-08-03T09:44:35;1.95;;;1.83;;
27223;SDS011;14965;50.660;13.226;2022-08-03T09:47:04;5.80;;;2.30;;
27223;SDS011;14965;50.660;13.226;2022-08-03T09:49:30;3.42;;;2.00;;
27223;SDS011;14965;50.660;13.226;2022-08-03T09:51:58;3.00;;;2.10;;
27223;SDS011;14965;50.660;13.226;2022-08-03T09:54:28;4.50;;;2.00;;
27223;SDS011;14965;50.660;13.226;2022-08-03T09:56:56;4.57;;;2.40;;
27223;SDS011;14965;50.660;13.226;2022-08-03T09:59:23;4.85;;;2.17;;
27223;SDS011;14965;50.660;13.226;2022-08-03T10:01:50;3.22;;;2.22;;
27223;SDS011;14965;50.660;13.226;2022-08-03T10:04:17;4.82;;;2.00;;
27223;SDS011;14965;50.660;13.226;2022-08-03T10:06:43;4.05;;;1.88;;
27223;SDS011;14965;50.660;13.226;2022-08-03T10:09:10;4.72;;;2.20;;
27223;SDS011;14965;50.660;13.226;2022-08-03T10:11:41;4.68;;;1.90;;
27223;SDS011;14965;50.660;13.226;2022-08-03T10:14:09;5.82;;;2.30;;
27223;SDS011;14965;50.660;13.226;2022-08-03T10:19:05;4.07;;;2.33;;
27223;SDS011;14965;50.660;13.226;2022-08-03T10:21:33;2.25;;;2.05;;
27223;SDS011;14965;50.660;13.226;2022-08-03T10:24:02;2.88;;;2.15;;
27223;SDS011;14965;50.660;13.226;2022-08-03T10:26:31;3.80;;;2.25;;
27223;SDS011;14965;50.660;13.226;2022-08-03T10:29:04;2.90;;;2.60;;
27223;SDS011;14965;50.660;13.226;2022-08-03T10:31:43;2.22;;;2.08;;
27223;SDS011;14965;50.660;13.226;2022-08-03T10:34:13;4.03;;;2.25;;
27223;SDS011;14965;50.660;13.226;2022-08-03T10:36:47;3.47;;;1.90;;
27223;SDS011;14965;50.660;13.226;2022-08-03T10:39:17;4.18;;;2.30;;
27223;SDS011;14965;50.660;13.226;2022-08-03T10:41:46;3.72;;;2.38;;
27223;SDS011;14965;50.660;13.226;2022-08-03T10:44:16;3.95;;;2.08;;
27223;SDS011;14965;50.660;13.226;2022-08-03T10:46:45;2.38;;;2.17;;
27223;SDS011;14965;50.660;13.226;2022-08-03T10:49:14;3.30;;;2.20;;
27223;SDS011;14965;50.660;13.226;2022-08-03T10:51:43;4.63;;;2.63;;
27223;SDS011;14965;50.660;13.226;2022-08-03T10:57:03;6.72;;;2.40;;
27223;SDS011;14965;50.660;13.226;2022-08-03T11:05:41;6.63;;;2.90;;
27223;SDS011;14965;50.660;13.226;2022-08-03T11:08:19;5.88;;;2.40;;
27223;SDS011;14965;50.660;13.226;2022-08-03T11:10:57;7.25;;;2.60;;
27223;SDS011;14965;50.660;13.226;2022-08-03T11:13:26;4.28;;;2.67;;
27223;SDS011;14965;50.660;13.226;2022-08-03T11:18:24;4.13;;;2.53;;
27223;SDS011;14965;50.660;13.226;2022-08-03T11:20:51;8.00;;;2.40;;
27223;SDS011;14965;50.660;13.226;2022-08-03T11:26:08;4.10;;;2.70;;
27223;SDS011;14965;50.660;13.226;2022-08-03T11:28:36;2.70;;;2.50;;
27223;SDS011;14965;50.660;13.226;2022-08-03T11:34:11;4.35;;;2.60;;
27223;SDS011;14965;50.660;13.226;2022-08-03T11:39:51;3.25;;;2.60;;
27223;SDS011;14965;50.660;13.226;2022-08-03T11:45:07;2.50;;;2.30;;
27223;SDS011;14965;50.660;13.226;2022-08-03T11:47:35;4.00;;;2.33;;
27223;SDS011;14965;50.660;13.226;2022-08-03T11:50:03;2.67;;;2.30;;
27223;SDS011;14965;50.660;13.226;2022-08-03T11:52:33;4.40;;;2.40;;
27223;SDS011;14965;50.660;13.226;2022-08-03T11:55:01;4.00;;;2.28;;
27223;SDS011;14965;50.660;13.226;2022-08-03T11:57:34;2.25;;;2.05;;
27223;SDS011;14965;50.660;13.226;2022-08-03T12:00:00;4.80;;;2.50;;
27223;SDS011;14965;50.660;13.226;2022-08-03T12:02:26;3.58;;;2.60;;
27223;SDS011;14965;50.660;13.226;2022-08-03T12:04:54;3.20;;;2.08;;
27223;SDS011;14965;50.660;13.226;2022-08-03T12:07:23;2.25;;;2.05;;
27223;SDS011;14965;50.660;13.226;2022-08-03T12:10:04;3.30;;;2.40;;
27223;SDS011;14965;50.660;13.226;2022-08-03T12:12:32;3.47;;;2.42;;
27223;SDS011;14965;50.660;13.226;2022-08-03T12:14:58;3.47;;;2.40;;
27223;SDS011;14965;50.660;13.226;2022-08-03T12:17:30;2.97;;;2.25;;
27223;SDS011;14965;50.660;13.226;2022-08-03T12:19:59;2.42;;;2.22;;
27223;SDS011;14965;50.660;13.226;2022-08-03T12:22:29;2.53;;;2.30;;
27223;SDS011;14965;50.660;13.226;2022-08-03T12:24:56;5.60;;;2.33;;
27223;SDS011;14965;50.660;13.226;2022-08-03T12:27:22;4.97;;;2.25;;
27223;SDS011;14965;50.660;13.226;2022-08-03T12:29:49;3.83;;;2.40;;
27223;SDS011;14965;50.660;13.226;2022-08-03T12:32:15;2.75;;;2.25;;
27223;SDS011;14965;50.660;13.226;2022-08-03T12:34:45;4.32;;;2.13;;
27223;SDS011;14965;50.660;13.226;2022-08-03T12:37:13;3.45;;;2.10;;
27223;SDS011;14965;50.660;13.226;2022-08-03T12:39:43;5.05;;;2.20;;
27223;SDS011;14965;50.660;13.226;2022-08-03T12:42:15;4.05;;;2.20;;
27223;SDS011;14965;50.660;13.226;2022-08-03T12:44:41;4.50;;;2.40;;
27223;SDS011;14965;50.660;13.226;2022-08-03T12:47:06;3.25;;;2.20;;
27223;SDS011;14965;50.660;13.226;2022-08-03T12:49:43;4.18;;;2.20;;
27223;SDS011;14965;50.660;13.226;2022-08-03T12:52:09;3.97;;;2.33;;
27223;SDS011;14965;50.660;13.226;2022-08-03T12:54:37;2.50;;;2.30;;
27223;SDS011;14965;50.660;13.226;2022-08-03T12:57:03;2.47;;;2.28;;
27223;SDS011;14965;50.660;13.226;2022-08-03T12:59:32;5.70;;;2.22;;
27223;SDS011;14965;50.660;13.226;2022-08-03T13:02:00;3.70;;;2.33;;
27223;SDS011;14965;50.660;13.226;2022-08-03T13:04:27;3.80;;;2.25;;
27223;SDS011;14965;50.660;13.226;2022-08-03T13:06:55;2.72;;;2.45;;
27223;SDS011;14965;50.660;13.226;2022-08-03T13:09:22;2.53;;;2.33;;
27223;SDS011;14965;50.660;13.226;2022-08-03T13:14:41;6.13;;;2.30;;
27223;SDS011;14965;50.660;13.226;2022-08-03T13:17:10;2.95;;;2.42;;
27223;SDS011;14965;50.660;13.226;2022-08-03T13:19:38;3.85;;;2.28;;
27223;SDS011;14965;50.660;13.226;2022-08-03T13:22:11;2.58;;;2.30;;
27223;SDS011;14965;50.660;13.226;2022-08-03T13:24:37;3.75;;;2.40;;
27223;SDS011;14965;50.660;13.226;2022-08-03T13:27:03;5.78;;;2.40;;
27223;SDS011;14965;50.660;13.226;2022-08-03T13:29:29;2.72;;;2.30;;
27223;SDS011;14965;50.660;13.226;2022-08-03T13:31:56;2.78;;;2.25;;
27223;SDS011;14965;50.660;13.226;2022-08-03T13:34:22;3.30;;;2.00;;
27223;SDS011;14965;50.660;13.226;2022-08-03T13:36:48;2.80;;;2.10;;
27223;SDS011;14965;50.660;13.226;2022-08-03T13:39:14;2.35;;;2.15;;
27223;SDS011;14965;50.660;13.226;2022-08-03T13:41:40;3.85;;;2.38;;
27223;SDS011;14965;50.660;13.226;2022-08-03T13:44:06;4.20;;;2.17;;
27223;SDS011;14965;50.660;13.226;2022-08-03T13:46:31;2.40;;;2.20;;
27223;SDS011;14965;50.660;13.226;2022-08-03T13:48:58;2.92;;;2.25;;
27223;SDS011;14965;50.660;13.226;2022-08-03T13:51:24;4.57;;;2.35;;
27223;SDS011;14965;50.660;13.226;2022-08-03T13:53:50;4.13;;;2.35;;
27223;SDS011;14965;50.660;13.226;2022-08-03T13:56:16;4.07;;;2.30;;
27223;SDS011;14965;50.660;13.226;2022-08-03T13:58:42;2.53;;;2.20;;
27223;SDS011;14965;50.660;13.226;2022-08-03T14:01:08;4.57;;;2.20;;
27223;SDS011;14965;50.660;13.226;2022-08-03T14:03:34;4.38;;;2.40;;
27223;SDS011;14965;50.660;13.226;2022-08-03T14:06:01;3.15;;;2.50;;
27223;SDS011;14965;50.660;13.226;2022-08-03T14:08:27;3.15;;;2.35;;
27223;SDS011;14965;50.660;13.226;2022-08-03T14:10:53;3.90;;;2.30;;
27223;SDS011;14965;50.660;13.226;2022-08-03T14:13:19;5.78;;;2.33;;
27223;SDS011;14965;50.660;13.226;2022-08-03T14:15:45;3.58;;;2.10;;
27223;SDS011;14965;50.660;13.226;2022-08-03T14:18:11;3.78;;;2.10;;
27223;SDS011;14965;50.660;13.226;2022-08-03T14:20:37;4.05;;;2.50;;
27223;SDS011;14965;50.660;13.226;2022-08-03T14:23:04;3.58;;;2.00;;
27223;SDS011;14965;50.660;13.226;2022-08-03T14:25:31;3.03;;;2.08;;
27223;SDS011;14965;50.660;13.226;2022-08-03T14:27:57;2.65;;;2.45;;
27223;SDS011;14965;50.660;13.226;2022-08-03T14:30:22;2.53;;;2.30;;
27223;SDS011;14965;50.660;13.226;2022-08-03T14:32:48;4.05;;;2.35;;
27223;SDS011;14965;50.660;13.226;2022-08-03T14:35:14;4.70;;;2.00;;
27223;SDS011;14965;50.660;13.226;2022-08-03T14:37:40;4.32;;;2.22;;
27223;SDS011;14965;50.660;13.226;2022-08-03T14:40:07;2.33;;;2.10;;
27223;SDS011;14965;50.660;13.226;2022-08-03T14:42:33;3.47;;;2.35;;
27223;SDS011;14965;50.660;13.226;2022-08-03T14:44:59;7.30;;;2.25;;
27223;SDS011;14965;50.660;13.226;2022-08-03T14:47:25;2.58;;;2.35;;
27223;SDS011;14965;50.660;13.226;2022-08-03T14:49:51;3.17;;;2.50;;
27223;SDS011;14965;50.660;13.226;2022-08-03T14:52:17;2.47;;;1.98;;
27223;SDS011;14965;50.660;13.226;2022-08-03T14:54:43;4.30;;;2.10;;
27223;SDS011;14965;50.660;13.226;2022-08-03T14:57:11;2.30;;;2.10;;
27223;SDS011;14965;50.660;13.226;2022-08-03T14:59:36;5.40;;;2.25;;
27223;SDS011;14965;50.660;13.226;2022-08-03T15:02:02;7.72;;;2.50;;
27223;SDS011;14965;50.660;13.226;2022-08-03T15:04:28;2.85;;;2.15;;
27223;SDS011;14965;50.660;13.226;2022-08-03T15:06:54;2.88;;;2.22;;
27223;SDS011;14965;50.660;13.226;2022-08-03T15:09:20;2.95;;;2.30;;
27223;SDS011;14965;50.660;13.226;2022-08-03T15:11:46;4.80;;;2.60;;
27223;SDS011;14965;50.660;13.226;2022-08-03T15:14:13;2.95;;;2.10;;
27223;SDS011;14965;50.660;13.226;2022-08-03T15:16:39;3.50;;;2.10;;
27223;SDS011;14965;50.660;13.226;2022-08-03T15:19:05;2.88;;;2.13;;
27223;SDS011;14965;50.660;13.226;2022-08-03T15:21:31;2.55;;;2.35;;
27223;SDS011;14965;50.660;13.226;2022-08-03T15:23:57;5.28;;;2.28;;
27223;SDS011;14965;50.660;13.226;2022-08-03T15:26:22;6.45;;;2.45;;
27223;SDS011;14965;50.660;13.226;2022-08-03T15:28:48;3.17;;;2.40;;